Time;durP1;ratioP1;P1;durP2;ratioP2;P2;SDS_P1;SDS_P2;PMS_P1;PMS_P2;Temp;Humidity;BMP_temperature;BMP_pressure;BME280_temperature;BME280_humidity;BME280_pressure;Samples;Min_cycle;Max_cycle;Signal;HPM_P1;HPM_P2
2022/07/19 00:04:28;;;;;;;;;13.75;13.00;;;;;23.73;42.45;99370.66;6149944;28;96291;-92
2022/07/19 00:07:33;;;;;;;;;12.00;12.00;;;;;23.77;42.70;99384.63;6128729;22;97578;-63
2022/07/19 00:10:36;;;;;;;;;14.40;14.00;;;;;23.72;42.59;99372.59;6130858;28;96776;-59
2022/07/19 00:13:39;;;;;;;;;13.40;13.00;;;;;23.73;42.62;99376.16;6092209;28;96937;-63
2022/07/19 00:16:43;;;;;;;;;14.00;12.00;;;;;23.72;42.59;99374.50;6113476;28;96582;-59
2022/07/19 00:19:48;;;;;;;;;14.80;14.00;;;;;23.69;42.80;99366.84;6114774;28;96654;-60
2022/07/19 00:22:52;;;;;;;;;15.60;13.60;;;;;23.69;42.91;99359.41;6115872;28;97417;-60
2022/07/19 00:25:55;;;;;;;;;19.00;17.00;;;;;23.66;42.77;99359.16;6115828;28;97477;-60
2022/07/19 00:29:01;;;;;;;;;17.40;15.40;;;;;23.64;43.00;99351.22;6115417;28;98124;-63
2022/07/19 00:32:06;;;;;;;;;16.50;15.00;;;;;23.62;42.98;99360.88;6107351;28;97061;-59
2022/07/19 00:35:12;;;;;;;;;14.00;13.00;;;;;23.59;42.76;99359.56;6091328;28;96451;-60
2022/07/19 00:38:16;;;;;;;;;14.00;12.50;;;;;23.60;43.05;99361.16;6089935;28;96978;-64
2022/07/19 00:41:19;;;;;;;;;13.60;12.60;;;;;23.60;43.07;99361.16;6091503;28;96822;-61
2022/07/19 00:44:23;;;;;;;;;17.25;16.25;;;;;23.58;42.83;99360.66;6090208;28;96999;-61
2022/07/19 00:47:26;;;;;;;;;13.20;12.20;;;;;23.50;42.69;99349.50;6090024;28;97605;-63
2022/07/19 00:50:31;;;;;;;;;14.00;13.00;;;;;23.56;43.19;99367.56;6088740;28;98354;-62
2022/07/19 00:53:37;;;;;;;;;15.33;15.00;;;;;23.52;43.29;99358.25;6089792;28;97885;-62
2022/07/19 00:56:43;;;;;;;;;15.00;14.80;;;;;23.55;42.89;99363.19;6089627;28;96816;-61
2022/07/19 00:59:50;;;;;;;;;15.00;13.00;;;;;23.53;43.07;99366.22;6072893;28;97461;-60
2022/07/19 01:02:53;;;;;;;;;13.00;12.40;;;;;23.51;43.42;99367.63;6090582;28;96781;-58
2022/07/19 01:05:58;;;;;;;;;14.00;14.00;;;;;23.43;43.20;99371.84;6073237;28;96850;-61
2022/07/19 01:09:02;;;;;;;;;14.00;14.00;;;;;23.37;43.28;99375.75;6103010;28;96790;-60
2022/07/19 01:12:07;;;;;;;;;15.60;15.40;;;;;23.31;43.16;99368.69;6089365;28;97461;-62
2022/07/19 01:15:17;;;;;;;;;14.00;13.25;;;;;23.28;43.56;99374.75;6088895;28;98929;-62
2022/07/19 01:18:20;;;;;;;;;17.00;16.40;;;;;23.25;43.42;99372.63;6091383;28;97047;-58
2022/07/19 01:21:26;;;;;;;;;14.40;13.40;;;;;23.21;43.31;99379.81;6089486;28;97598;-60
2022/07/19 01:24:30;;;;;;;;;13.00;13.00;;;;;23.17;43.16;99381.50;6091051;28;96512;-61
2022/07/19 01:27:39;;;;;;;;;14.60;13.60;;;;;23.10;43.48;99370.84;6087992;28;97016;-62
2022/07/19 01:30:42;;;;;;;;;15.75;15.75;;;;;23.07;43.18;99370.59;6089432;28;97547;-61
2022/07/19 01:33:46;;;;;;;;;14.00;14.00;;;;;23.02;43.32;99371.47;6088433;28;98031;-61
2022/07/19 01:36:51;;;;;;;;;17.20;16.80;;;;;22.94;43.51;99369.38;6089337;28;97430;-60
2022/07/19 01:39:56;;;;;;;;;15.50;15.00;;;;;22.89;43.75;99367.50;6090545;28;96460;-61
2022/07/19 01:42:59;;;;;;;;;14.20;13.20;;;;;22.85;43.42;99360.94;6078292;28;96885;-63
2022/07/19 01:46:03;;;;;;;;;13.00;12.33;;;;;22.82;43.42;99366.22;6088410;28;96560;-59
2022/07/19 01:49:07;;;;;;;;;14.40;14.00;;;;;22.79;43.44;99367.59;6089215;28;96743;-59
2022/07/19 01:52:12;;;;;;;;;14.00;14.00;;;;;22.77;43.57;99371.75;6072208;28;97785;-61
2022/07/19 01:55:15;;;;;;;;;16.60;16.00;;;;;22.76;43.89;99370.09;6089211;28;97434;-61
2022/07/19 01:58:19;;;;;;;;;16.50;16.00;;;;;22.73;43.84;99371.50;6089692;28;97341;-59
2022/07/19 02:01:22;;;;;;;;;16.00;16.00;;;;;22.71;44.17;99370.97;6086559;28;97945;-60
2022/07/19 02:04:26;;;;;;;;;14.60;13.60;;;;;22.67;44.31;99366.31;6087919;28;96444;-58
2022/07/19 02:07:31;;;;;;;;;18.40;18.00;;;;;22.64;44.42;99362.19;6089527;28;96717;-59
2022/07/19 02:10:35;;;;;;;;;16.00;15.00;;;;;22.65;44.51;99355.59;6089799;28;97439;-61
2022/07/19 02:13:39;;;;;;;;;15.00;14.00;;;;;22.66;44.40;99361.94;6089787;28;96437;-61
2022/07/19 02:16:42;;;;;;;;;16.00;15.00;;;;;22.67;44.61;99360.81;6066339;28;97608;-59
2022/07/19 02:19:46;;;;;;;;;16.25;15.25;;;;;22.71;44.49;99367.41;6067811;28;96910;-61
2022/07/19 02:22:51;;;;;;;;;16.00;15.80;;;;;22.75;44.13;99357.47;6081664;28;99628;-60
2022/07/19 02:25:54;;;;;;;;;17.40;17.40;;;;;22.78;44.44;99359.63;6092877;28;97558;-59
2022/07/19 02:28:58;;;;;;;;;15.00;15.00;;;;;22.79;44.37;99362.09;6093719;28;97440;-60
2022/07/19 02:32:01;;;;;;;;;15.00;15.00;;;;;22.82;44.51;99364.25;6093697;28;97012;-60
2022/07/19 02:35:07;;;;;;;;;15.40;14.20;;;;;22.86;44.59;99361.75;6092968;28;96889;-61
2022/07/19 02:38:11;;;;;;;;;16.00;14.00;;;;;22.92;44.34;99376.28;6094102;28;96503;-62
2022/07/19 02:41:15;;;;;;;;;14.00;13.00;;;;;22.98;44.53;99369.59;6092699;28;96746;-63
2022/07/19 02:44:18;;;;;;;;;16.20;15.00;;;;;23.03;44.63;99375.88;6092072;28;96552;-63
2022/07/19 02:47:21;;;;;;;;;15.00;13.00;;;;;23.09;44.70;99371.97;6093709;28;97093;-60
2022/07/19 02:50:25;;;;;;;;;14.00;13.00;;;;;23.14;44.60;99377.41;6093787;28;97000;-60
2022/07/19 02:53:32;;;;;;;;;14.00;12.50;;;;;23.18;44.51;99375.69;6092051;28;96829;-64
2022/07/19 02:56:36;;;;;;;;;15.00;14.00;;;;;23.24;44.51;99379.22;6093578;28;96987;-61
2022/07/19 02:59:39;;;;;;;;;14.80;14.80;;;;;23.28;44.24;99383.03;6090971;28;97098;-61
2022/07/19 03:02:43;;;;;;;;;15.40;15.40;;;;;22.81;44.14;99304.91;6089802;28;97588;-60
2022/07/19 03:05:47;;;;;;;;;15.60;14.60;;;;;23.32;44.38;99381.31;6092929;28;97060;-58
2022/07/19 03:08:52;;;;;;;;;14.00;14.00;;;;;23.30;44.27;99370.63;6091704;28;97509;-60
2022/07/19 03:11:55;;;;;;;;;16.00;14.00;;;;;23.33;44.49;99378.28;6092875;28;97314;-64
2022/07/19 03:14:58;;;;;;;;;13.00;13.00;;;;;23.35;44.14;99377.16;6087170;28;96838;-64
2022/07/19 03:18:02;;;;;;;;;17.00;16.00;;;;;23.36;43.98;99379.63;6084598;28;97337;-61
2022/07/19 03:21:06;;;;;;;;;15.00;14.50;;;;;23.37;44.03;99378.50;6088521;28;97864;-60
2022/07/19 03:24:11;;;;;;;;;17.00;16.00;;;;;23.39;44.42;99376.28;6087775;28;97272;-62
2022/07/19 03:27:14;;;;;;;;;18.00;17.00;;;;;23.41;43.62;99376.78;6088014;28;96736;-58
2022/07/19 03:30:17;;;;;;;;;15.00;15.00;;;;;23.41;43.45;99374.03;6087940;28;97595;-63
2022/07/19 03:33:20;;;;;;;;;13.00;12.00;;;;;23.41;43.67;99379.56;6093371;28;98085;-64
2022/07/19 03:36:24;;;;;;;;;13.50;13.00;;;;;23.45;43.80;99382.59;6091402;28;98083;-61
2022/07/19 03:39:28;;;;;;;;;14.00;13.00;;;;;23.48;43.66;99374.56;6092216;28;97542;-61
2022/07/19 03:42:32;;;;;;;;;17.00;16.00;;;;;23.52;43.81;99380.28;6090395;28;96906;-61
2022/07/19 03:45:35;;;;;;;;;14.50;14.00;;;;;23.58;44.04;99395.63;6090801;28;97661;-61
2022/07/19 03:48:38;;;;;;;;;17.00;16.00;;;;;23.65;43.74;99399.66;6092283;28;96728;-63
2022/07/19 03:51:42;;;;;;;;;11.20;10.20;;;;;23.74;43.33;99397.91;6090305;28;97475;-59
2022/07/19 03:54:47;;;;;;;;;15.20;14.00;;;;;23.84;42.76;99388.69;6088852;28;97478;-62
2022/07/19 03:57:50;;;;;;;;;13.00;12.50;;;;;23.94;42.35;99384.97;6087791;28;97155;-59
2022/07/19 04:00:53;;;;;;;;;13.33;13.00;;;;;24.03;42.22;99385.94;6088097;28;97583;-60
2022/07/19 04:03:57;;;;;;;;;16.40;16.00;;;;;24.09;42.77;99388.28;6090433;28;97143;-58
2022/07/19 04:07:00;;;;;;;;;14.25;13.00;;;;;24.12;42.96;99401.50;6090185;28;97603;-57
2022/07/19 04:10:06;;;;;;;;;14.60;14.60;;;;;24.14;42.94;99390.97;6092017;28;97447;-60
2022/07/19 04:13:09;;;;;;;;;14.60;13.60;;;;;24.16;42.62;99390.69;6074720;28;98774;-60
2022/07/19 04:16:13;;;;;;;;;13.00;13.00;;;;;24.15;42.56;99386.28;6088890;28;97466;-61
2022/07/19 04:19:17;;;;;;;;;10.75;10.75;;;;;24.25;42.40;99393.59;6091787;28;97524;-60
2022/07/19 04:22:23;;;;;;;;;11.80;11.80;;;;;24.30;42.63;99401.78;6087967;28;98408;-64
2022/07/19 04:25:28;;;;;;;;;13.00;13.00;;;;;24.38;42.29;99412.16;6100204;28;97598;-60
2022/07/19 04:28:31;;;;;;;;;15.25;15.00;;;;;24.45;41.58;99409.81;6089572;28;96667;-61
2022/07/19 04:31:34;;;;;;;;;18.00;17.00;;;;;24.53;41.55;99414.69;6089873;28;97536;-59
2022/07/19 04:34:38;;;;;;;;;12.20;11.20;;;;;24.60;41.08;99415.91;6090433;28;97564;-58
2022/07/19 04:37:42;;;;;;;;;11.00;10.00;;;;;24.68;40.86;99405.34;6105552;28;96972;-59
2022/07/19 04:40:46;;;;;;;;;10.00;10.00;;;;;24.69;40.39;99409.72;6090343;28;97460;-60
2022/07/19 04:43:50;;;;;;;;;10.00;10.00;;;;;24.76;39.71;99401.88;6088832;28;98098;-58
2022/07/19 04:46:53;;;;;;;;;11.00;10.00;;;;;24.94;39.34;99418.41;6065682;28;98927;-66
2022/07/19 04:49:57;;;;;;;;;13.00;13.00;;;;;25.02;39.43;99416.91;6068304;28;96412;-60
2022/07/19 04:53:00;;;;;;;;;11.20;10.20;;;;;25.08;38.83;99418.41;6067757;28;96432;-61
2022/07/19 04:56:05;;;;;;;;;16.20;15.00;;;;;25.12;38.04;99415.91;6088620;28;96702;-58
2022/07/19 04:59:09;;;;;;;;;12.20;12.00;;;;;25.18;38.31;99422.94;6090136;28;97483;-61
2022/07/19 05:02:12;;;;;;;;;13.80;12.80;;;;;25.22;38.47;99426.72;6091201;28;96707;-60
2022/07/19 05:05:16;;;;;;;;;13.00;13.00;;;;;25.26;38.68;99425.00;6090287;28;96729;-59
2022/07/19 05:08:19;;;;;;;;;13.00;12.00;;;;;25.29;38.94;99427.16;6089878;28;96993;-60
2022/07/19 05:11:24;;;;;;;;;13.00;11.40;;;;;25.30;39.10;99412.22;6087392;28;96655;-61
2022/07/19 05:14:28;;;;;;;;;13.75;12.75;;;;;25.35;39.09;99417.66;6089382;28;97452;-63
2022/07/19 05:17:31;;;;;;;;;13.40;12.40;;;;;25.40;38.89;99415.63;6091250;28;96718;-60
2022/07/19 05:20:35;;;;;;;;;12.50;11.00;;;;;25.36;38.08;99406.28;6087393;28;98478;-60
2022/07/19 05:23:40;;;;;;;;;11.00;11.00;;;;;25.46;38.01;99406.06;6090150;28;96635;-59
2022/07/19 05:26:45;;;;;;;;;14.80;13.00;;;;;25.53;37.61;99413.13;6088812;28;97488;-64
2022/07/19 05:29:48;;;;;;;;;11.20;11.20;;;;;25.55;37.42;99406.22;6087983;28;98073;-61
2022/07/19 05:32:51;;;;;;;;;12.20;10.20;;;;;25.61;37.53;99409.72;6089206;28;97212;-59
2022/07/19 05:35:56;;;;;;;;;13.00;12.00;;;;;25.67;37.50;99413.97;6089154;28;98114;-62
2022/07/19 05:39:00;;;;;;;;;10.25;10.25;;;;;25.76;37.14;99403.84;6089933;28;96953;-62
2022/07/19 05:42:05;;;;;;;;;10.00;9.80;;;;;25.87;36.84;99408.84;6081356;28;96750;-58
2022/07/19 05:45:10;;;;;;;;;12.00;10.00;;;;;25.98;36.45;99408.63;6066060;28;97029;-63
2022/07/19 05:48:13;;;;;;;;;9.00;8.40;;;;;26.08;36.29;99406.47;6066872;28;97589;-59
2022/07/19 05:51:16;;;;;;;;;10.00;10.00;;;;;26.19;36.45;99413.38;6082577;28;97522;-59
2022/07/19 05:54:20;;;;;;;;;12.60;11.60;;;;;26.31;36.31;99410.09;6089470;28;96427;-59
2022/07/19 05:57:25;;;;;;;;;9.60;9.40;;;;;26.44;36.18;99406.44;6094145;28;97152;-60
2022/07/19 06:00:28;;;;;;;;;10.40;10.00;;;;;26.60;36.00;99404.97;6093327;28;97051;-62
2022/07/19 06:03:32;;;;;;;;;10.60;9.60;;;;;26.74;35.60;99405.69;6092041;28;97522;-59
2022/07/19 06:06:35;;;;;;;;;10.00;10.00;;;;;26.91;35.99;99405.03;6093015;28;97460;-59
2022/07/19 06:09:39;;;;;;;;;10.60;10.60;;;;;27.07;35.32;99405.47;6093847;28;97442;-66
2022/07/19 06:12:43;;;;;;;;;12.00;11.00;;;;;27.17;35.21;99416.25;6094245;28;97436;-59
2022/07/19 06:15:47;;;;;;;;;17.00;15.00;;;;;27.25;35.60;99411.88;6093362;28;97494;-60
2022/07/19 06:18:50;;;;;;;;;14.00;13.40;;;;;27.19;35.20;99393.78;6094335;28;97026;-62
2022/07/19 06:21:53;;;;;;;;;14.00;12.00;;;;;27.35;36.00;99404.13;6092012;28;96701;-61
2022/07/19 06:24:57;;;;;;;;;11.00;9.40;;;;;27.44;35.66;99404.13;6092870;28;97000;-57
2022/07/19 06:28:01;;;;;;;;;9.40;9.00;;;;;27.52;35.34;99403.38;6091456;28;98927;-62
2022/07/19 06:31:07;;;;;;;;;11.60;11.00;;;;;27.61;34.85;99392.34;6092841;28;97030;-59
2022/07/19 06:34:11;;;;;;;;;10.60;10.00;;;;;27.70;35.41;99405.09;6091685;28;97772;-60
2022/07/19 06:37:15;;;;;;;;;13.00;13.00;;;;;27.82;35.46;99404.44;6093243;28;97525;-56
2022/07/19 06:40:19;;;;;;;;;9.00;8.60;;;;;27.92;35.31;99398.59;6091508;28;97457;-59
2022/07/19 06:43:24;;;;;;;;;11.00;9.00;;;;;28.01;34.90;99402.19;6108093;28;96678;-58
2022/07/19 06:46:27;;;;;;;;;6.00;6.00;;;;;28.13;34.61;99404.38;6084183;28;96706;-61
2022/07/19 06:49:31;;;;;;;;;9.00;9.00;;;;;28.20;34.18;99404.72;6071685;28;96994;-61
2022/07/19 06:52:34;;;;;;;;;10.00;9.00;;;;;28.29;32.77;99408.28;6092554;28;97492;-60
2022/07/19 06:55:38;;;;;;;;;11.00;10.00;;;;;28.37;33.52;99407.47;6092239;28;98216;-58
2022/07/19 06:58:42;;;;;;;;;12.00;11.60;;;;;28.49;32.68;99406.81;6091648;28;97471;-60
2022/07/19 07:01:46;;;;;;;;;10.00;9.00;;;;;28.51;31.85;99410.88;6091267;28;96881;-59
2022/07/19 07:04:49;;;;;;;;;11.50;11.00;;;;;28.67;32.08;99409.25;6091090;28;97230;-61
2022/07/19 07:07:54;;;;;;;;;10.00;10.00;;;;;28.78;32.67;99410.56;6080052;28;97582;-63
2022/07/19 07:10:57;;;;;;;;;9.00;9.00;;;;;28.89;31.95;99410.19;6091814;28;96567;-54
2022/07/19 07:14:02;;;;;;;;;9.80;8.80;;;;;28.98;32.09;99409.03;6089486;28;96846;-60
2022/07/19 07:17:05;;;;;;;;;8.50;8.50;;;;;29.04;31.11;99402.16;6091508;28;97349;-60
2022/07/19 07:20:10;;;;;;;;;7.20;7.20;;;;;29.14;31.66;99399.03;6091671;28;96925;-62
2022/07/19 07:23:13;;;;;;;;;8.00;7.00;;;;;29.26;31.62;99401.13;6091887;28;96270;-60
2022/07/19 07:26:17;;;;;;;;;9.00;8.00;;;;;29.36;31.00;99399.97;6091152;28;96859;-60
2022/07/19 07:29:22;;;;;;;;;10.00;10.00;;;;;29.48;31.30;99395.34;6090876;28;97234;-64
2022/07/19 07:32:26;;;;;;;;;8.00;8.00;;;;;29.57;30.33;99395.28;6098944;28;96821;-58
2022/07/19 07:35:30;;;;;;;;;10.20;10.20;;;;;29.68;30.84;99391.78;6090792;28;96563;-59
2022/07/19 07:38:33;;;;;;;;;10.20;9.80;;;;;29.82;30.58;99405.44;6080586;28;97447;-64
2022/07/19 07:41:37;;;;;;;;;11.00;11.00;;;;;29.96;30.18;99399.66;6075240;28;96651;-63
2022/07/19 07:44:49;;;;;;;;;9.40;8.00;;;;;30.09;29.59;99407.75;6085860;28;97315;-60
2022/07/19 07:47:52;;;;;;;;;6.00;6.00;;;;;30.20;30.59;99410.13;6090453;28;97484;-65
2022/07/19 07:50:56;;;;;;;;;13.50;12.50;;;;;30.33;30.08;99412.66;6097484;28;97402;-62
2022/07/19 07:54:15;;;;;;;;;11.40;11.00;;;;;30.53;29.86;99406.28;6084808;28;96773;-59
2022/07/19 07:57:18;;;;;;;;;9.00;8.00;;;;;30.73;29.72;99412.16;6089812;28;97512;-58
2022/07/19 08:00:23;;;;;;;;;9.00;8.00;;;;;30.96;29.63;99407.81;6090776;28;97538;-64
2022/07/19 08:03:27;;;;;;;;;12.40;10.40;;;;;31.22;28.86;99413.13;6083726;28;96881;-61
2022/07/19 08:06:30;;;;;;;;;9.00;9.00;;;;;31.43;29.16;99408.25;6018102;28;1635080;-62
2022/07/19 08:09:33;;;;;;;;;6.75;6.75;;;;;31.59;28.41;99412.03;6092568;28;96963;-62
2022/07/19 08:12:37;;;;;;;;;8.20;7.20;;;;;31.74;28.54;99408.53;6092543;28;97491;-59
2022/07/19 08:15:42;;;;;;;;;7.80;7.80;;;;;31.88;28.33;99410.16;6092322;28;97459;-61
2022/07/19 08:18:45;;;;;;;;;8.75;8.00;;;;;31.82;27.96;99385.28;6105226;28;98479;-57
2022/07/19 08:21:49;;;;;;;;;8.00;7.80;;;;;32.13;28.09;99406.19;6070390;28;99951;-59
2022/07/19 08:24:52;;;;;;;;;7.40;7.40;;;;;32.26;27.40;99405.00;6089321;28;96701;-59
2022/07/19 08:27:56;;;;;;;;;8.00;7.80;;;;;32.42;26.13;99407.84;6079529;28;96827;-58
2022/07/19 08:31:00;;;;;;;;;7.00;7.00;;;;;32.42;26.43;99377.16;6088096;28;96869;-58
2022/07/19 08:34:14;;;;;;;;;9.80;8.80;;;;;32.68;26.15;99402.69;6084956;28;97529;-49
2022/07/19 08:37:17;;;;;;;;;8.40;7.80;;;;;32.82;25.79;99393.88;6089883;28;97571;-57
2022/07/19 08:40:21;;;;;;;;;9.00;9.00;;;;;32.98;25.73;99392.75;6089961;28;96716;-60
2022/07/19 08:43:24;;;;;;;;;9.00;9.00;;;;;33.08;25.84;99395.00;6091678;28;96874;-59
2022/07/19 08:46:29;;;;;;;;;11.00;10.60;;;;;33.18;25.86;99387.31;6090632;28;96741;-50
2022/07/19 08:49:33;;;;;;;;;9.00;8.00;;;;;33.23;25.70;99385.06;6089666;28;99419;-58
2022/07/19 08:52:37;;;;;;;;;8.60;7.60;;;;;33.35;25.29;99393.34;6090367;28;96738;-50
2022/07/19 08:55:40;;;;;;;;;7.20;7.00;;;;;33.52;23.72;99394.97;6091996;28;96824;-60
2022/07/19 08:58:44;;;;;;;;;10.40;9.40;;;;;33.70;23.64;99395.41;6091224;28;96967;-58
2022/07/19 09:01:48;;;;;;;;;8.00;8.00;;;;;33.90;24.60;99399.88;6090281;28;97087;-59
2022/07/19 09:05:00;;;;;;;;;7.20;7.20;;;;;34.09;24.21;99391.53;6090916;28;97476;-59
2022/07/19 09:08:07;;;;;;;;;9.00;9.00;;;;;34.30;23.88;99396.81;6090359;28;96747;-58
2022/07/19 09:11:16;;;;;;;;;9.60;9.60;;;;;34.45;24.03;99379.16;6085692;28;97183;-57
2022/07/19 09:14:21;;;;;;;;;9.60;9.00;;;;;34.54;23.92;99384.53;6088108;28;97628;-60
2022/07/19 09:17:30;;;;;;;;;7.00;7.00;;;;;34.59;23.99;99382.22;6080921;28;97031;-58
2022/07/19 09:20:35;;;;;;;;;7.00;6.00;;;;;34.59;22.89;99376.63;6077355;28;96899;-61
2022/07/19 09:23:41;;;;;;;;;8.00;8.00;;;;;34.57;22.94;99387.38;6090266;28;97450;-61
2022/07/19 09:27:05;;;;;;;;;8.40;8.40;;;;;34.67;23.59;99380.38;6088767;28;96626;-51
2022/07/19 09:30:09;;;;;;;;;8.00;8.00;;;;;34.77;23.65;99377.81;6085914;28;97244;-59
2022/07/19 09:33:15;;;;;;;;;8.00;6.00;;;;;34.81;21.52;99372.28;6089607;28;97520;-58
2022/07/19 09:36:19;;;;;;;;;7.00;7.00;;;;;34.83;21.51;99369.09;6089623;28;97007;-59
2022/07/19 09:39:28;;;;;;;;;7.00;7.00;;;;;34.90;21.68;99372.84;6090889;28;96510;-54
2022/07/19 09:42:37;;;;;;;;;8.00;8.00;;;;;34.96;22.87;99376.97;6090549;28;97402;-60
2022/07/19 09:45:40;;;;;;;;;7.80;7.00;;;;;35.15;22.86;99371.31;6090072;28;97430;-55
2022/07/19 09:48:45;;;;;;;;;9.00;8.60;;;;;35.42;22.99;99371.38;6090335;28;97197;-57
2022/07/19 09:51:51;;;;;;;;;6.00;5.20;;;;;35.34;22.05;99331.19;6084014;28;97258;-59
2022/07/19 09:54:55;;;;;;;;;7.00;7.00;;;;;35.73;21.51;99367.47;6089055;28;98111;-56
2022/07/19 09:58:01;;;;;;;;;11.40;11.40;;;;;35.75;22.43;99367.94;6093072;28;97186;-61
2022/07/19 10:01:05;;;;;;;;;8.40;8.00;;;;;35.76;22.60;99370.38;6091825;28;97349;-59
2022/07/19 10:04:11;;;;;;;;;7.60;7.60;;;;;35.72;22.94;99365.88;6078082;28;97480;-55
2022/07/19 10:07:16;;;;;;;;;7.00;7.00;;;;;35.67;22.02;99363.41;6089616;28;96373;-59
2022/07/19 10:10:22;;;;;;;;;7.60;7.20;;;;;35.70;22.14;99363.44;6086910;28;97087;-56
2022/07/19 10:13:27;;;;;;;;;6.20;6.00;;;;;35.85;20.10;99362.47;6085787;28;96942;-53
2022/07/19 10:16:45;;;;;;;;;8.00;7.00;;;;;36.09;20.63;99357.59;6085821;28;97609;-60
2022/07/19 10:19:50;;;;;;;;;8.00;8.00;;;;;36.28;22.10;99369.50;6083625;28;99552;-60
2022/07/19 10:22:53;;;;;;;;;7.00;7.00;;;;;36.45;20.19;99365.31;6087759;28;96935;-58
2022/07/19 10:25:57;;;;;;;;;8.00;7.00;;;;;36.55;18.55;99361.81;6085089;28;97408;-57
2022/07/19 10:29:08;;;;;;;;;5.60;5.00;;;;;36.64;21.02;99364.34;6086417;28;99651;-57
2022/07/19 10:32:14;;;;;;;;;6.00;6.00;;;;;36.70;18.54;99368.44;6087193;28;97472;-59
2022/07/19 10:35:22;;;;;;;;;6.00;6.00;;;;;36.83;19.81;99350.13;6085267;28;97443;-59
2022/07/19 10:38:25;;;;;;;;;7.00;6.00;;;;;36.93;19.01;99354.22;6089921;28;96787;-55
2022/07/19 10:41:29;;;;;;;;;8.00;6.60;;;;;36.98;18.72;99351.06;6091902;28;97489;-61
2022/07/19 10:44:33;;;;;;;;;6.00;5.00;;;;;37.06;18.88;99350.72;6091587;28;97140;-62
2022/07/19 10:47:59;;;;;;;;;7.00;7.00;;;;;37.22;17.95;99348.50;6092741;28;98016;-58
2022/07/19 10:51:04;;;;;;;;;6.00;6.00;;;;;37.32;18.02;99355.41;6089913;28;96726;-60
2022/07/19 10:54:08;;;;;;;;;6.20;5.20;;;;;37.38;18.34;99344.63;6092682;28;96982;-62
2022/07/19 10:57:12;;;;;;;;;5.00;5.00;;;;;37.37;18.72;99338.19;6091200;28;96976;-51
2022/07/19 11:00:19;;;;;;;;;6.00;6.00;;;;;37.39;19.03;99349.84;6092582;28;97439;-56
2022/07/19 11:03:30;;;;;;;;;6.00;5.00;;;;;37.39;18.13;99335.78;6090439;28;96696;-58
2022/07/19 11:06:35;;;;;;;;;7.25;7.25;;;;;37.39;18.21;99338.59;6091299;28;96510;-58
2022/07/19 11:09:44;;;;;;;;;6.00;6.00;;;;;37.35;18.34;99336.94;6092828;28;96656;-58
2022/07/19 11:12:48;;;;;;;;;6.80;6.00;;;;;37.16;19.72;99333.19;6092942;28;96800;-61
2022/07/19 11:15:55;;;;;;;;;8.00;8.00;;;;;36.99;20.27;99321.78;6090852;28;96719;-57
2022/07/19 11:19:04;;;;;;;;;7.00;6.00;;;;;36.80;19.64;99314.38;6091531;28;97457;-61
2022/07/19 11:22:12;;;;;;;;;8.40;7.40;;;;;36.78;19.05;99325.97;6088972;28;96536;-65
2022/07/19 11:25:17;;;;;;;;;6.00;6.00;;;;;36.70;20.86;99309.44;6092659;28;97527;-57
2022/07/19 11:28:22;;;;;;;;;8.00;8.00;;;;;36.68;20.87;99311.81;6091064;28;96790;-57
2022/07/19 11:31:26;;;;;;;;;5.00;5.00;;;;;36.69;20.16;99314.25;6092509;28;97478;-60
2022/07/19 11:34:30;;;;;;;;;7.60;6.60;;;;;36.72;20.28;99310.66;6090228;28;97469;-60
2022/07/19 11:37:38;;;;;;;;;6.00;5.40;;;;;36.74;21.15;99313.09;6091351;28;97384;-63
2022/07/19 11:40:41;;;;;;;;;7.00;7.00;;;;;36.67;20.77;99307.38;6090384;28;96793;-59
2022/07/19 11:43:45;;;;;;;;;5.50;5.50;;;;;36.58;20.23;99307.69;6090065;28;96553;-57
2022/07/19 11:46:48;;;;;;;;;7.00;7.00;;;;;36.51;20.98;99306.81;6092303;28;96733;-63
2022/07/19 11:49:52;;;;;;;;;6.60;6.60;;;;;36.46;18.74;99299.50;6094649;28;98024;-59
2022/07/19 11:52:58;;;;;;;;;6.40;6.00;;;;;36.52;18.57;99299.97;6074224;28;97463;-61
2022/07/19 11:56:02;;;;;;;;;6.75;6.75;;;;;36.55;18.94;99299.22;6091991;28;96828;-57
2022/07/19 11:59:08;;;;;;;;;7.00;7.00;;;;;36.61;19.07;99306.13;6091872;28;97447;-61
2022/07/19 12:02:12;;;;;;;;;7.00;6.00;;;;;36.73;19.33;99297.41;6097236;28;98038;-60
2022/07/19 12:05:16;;;;;;;;;7.00;6.25;;;;;36.77;20.26;99299.06;6089763;28;96548;-56
2022/07/19 12:08:21;;;;;;;;;5.20;5.20;;;;;36.76;19.33;99299.44;6082571;28;97508;-61
2022/07/19 12:11:27;;;;;;;;;6.40;6.40;;;;;36.68;20.48;99289.34;6087691;28;99246;-55
2022/07/19 12:14:34;;;;;;;;;6.00;6.00;;;;;36.63;19.10;99284.88;6091565;28;96509;-63
2022/07/19 12:17:37;;;;;;;;;5.50;5.50;;;;;36.63;21.20;99290.50;6090393;28;96530;-58
2022/07/19 12:20:40;;;;;;;;;5.00;5.00;;;;;36.52;20.97;99281.13;6089436;28;96944;-54
2022/07/19 12:24:17;;;;;;;;;6.00;6.00;;;;;36.41;21.30;99288.63;6090995;28;97439;-60
2022/07/19 12:27:22;;;;;;;;;9.00;8.50;;;;;36.19;20.40;99278.34;6090603;28;96565;-59
2022/07/19 12:30:26;;;;;;;;;6.20;6.00;;;;;36.29;21.15;99280.47;6090233;28;96803;-64
2022/07/19 12:33:30;;;;;;;;;6.00;5.00;;;;;36.27;21.10;99291.25;6089349;28;98316;-58
2022/07/19 12:36:34;;;;;;;;;7.00;7.00;;;;;36.31;21.29;99278.09;6090767;28;97477;-58
2022/07/19 12:39:39;;;;;;;;;7.20;7.00;;;;;36.36;20.13;99267.31;6088517;28;97521;-56
2022/07/19 12:42:45;;;;;;;;;5.00;5.00;;;;;36.48;21.49;99272.66;6089786;28;97744;-55
2022/07/19 12:45:48;;;;;;;;;7.00;7.00;;;;;36.45;20.39;99267.03;6090885;28;96530;-58
2022/07/19 12:48:52;;;;;;;;;6.60;6.60;;;;;36.41;19.50;99269.78;6087550;28;97087;-58
2022/07/19 12:51:55;;;;;;;;;9.60;9.00;;;;;36.38;21.21;99262.13;6089159;28;97720;-57
2022/07/19 12:55:00;;;;;;;;;7.40;7.40;;;;;36.33;21.09;99251.25;6090704;28;97574;-56
2022/07/19 12:58:05;;;;;;;;;8.60;7.00;;;;;36.34;21.28;99254.84;6091694;28;96502;-59
2022/07/19 13:01:12;;;;;;;;;8.50;6.00;;;;;36.44;20.60;99256.97;6091082;28;97182;-60
2022/07/19 13:04:15;;;;;;;;;6.00;6.00;;;;;36.48;21.28;99252.19;6086111;28;98118;-59
2022/07/19 13:07:19;;;;;;;;;5.60;5.60;;;;;36.45;21.36;99236.94;6090525;28;96972;-60
2022/07/19 13:10:24;;;;;;;;;7.20;7.20;;;;;36.43;20.76;99249.72;6091129;28;97589;-57
2022/07/19 13:13:28;;;;;;;;;7.00;7.00;;;;;36.41;21.26;99238.88;6091433;28;97444;-57
2022/07/19 13:16:31;;;;;;;;;9.75;9.75;;;;;36.33;21.36;99234.38;6091329;28;97446;-56
2022/07/19 13:19:35;;;;;;;;;7.75;7.00;;;;;36.31;20.38;99233.19;6091123;28;96890;-63
2022/07/19 13:22:40;;;;;;;;;8.00;7.00;;;;;36.30;20.22;99235.16;6089468;28;98278;-57
2022/07/19 13:25:45;;;;;;;;;6.00;5.60;;;;;36.27;20.90;99233.13;6090914;28;96842;-62
2022/07/19 13:28:49;;;;;;;;;7.00;7.00;;;;;36.30;20.84;99235.16;6090988;28;97452;-59
2022/07/19 13:31:53;;;;;;;;;8.00;7.00;;;;;36.30;21.21;99234.38;6090827;28;97112;-56
2022/07/19 13:34:57;;;;;;;;;9.00;8.40;;;;;36.28;21.21;99231.94;6090834;28;96857;-58
2022/07/19 13:38:01;;;;;;;;;8.00;8.00;;;;;36.23;21.02;99237.88;6090102;28;97829;-53
2022/07/19 13:41:06;;;;;;;;;8.75;8.00;;;;;36.23;21.40;99229.47;6090943;28;97409;-60
2022/07/19 13:44:09;;;;;;;;;7.00;7.00;;;;;36.17;21.67;99231.00;6090600;28;96909;-58
2022/07/19 13:47:13;;;;;;;;;6.80;6.80;;;;;36.13;21.35;99221.72;6090365;28;96604;-54
2022/07/19 13:50:17;;;;;;;;;5.00;5.00;;;;;36.09;20.33;99229.28;6090540;28;97075;-61
2022/07/19 13:53:20;;;;;;;;;9.00;7.00;;;;;36.12;20.21;99222.88;6090358;28;96460;-59
2022/07/19 13:56:25;;;;;;;;;7.00;7.00;;;;;36.14;21.48;99228.16;6090244;28;96480;-58
2022/07/19 13:59:30;;;;;;;;;7.60;7.00;;;;;36.09;21.60;99223.66;6090557;28;97461;-55
2022/07/19 14:02:33;;;;;;;;;5.00;5.00;;;;;36.07;21.70;99211.22;6090502;28;97079;-59
2022/07/19 14:05:38;;;;;;;;;5.00;5.00;;;;;35.97;21.31;99199.47;6090603;28;96979;-58
2022/07/19 14:08:42;;;;;;;;;9.00;8.40;;;;;36.01;20.79;99202.34;6090156;28;96998;-56
2022/07/19 14:11:47;;;;;;;;;7.00;7.00;;;;;36.07;21.74;99205.59;6090236;28;96457;-56
2022/07/19 14:14:50;;;;;;;;;6.00;6.00;;;;;36.05;21.59;99200.38;6090483;28;97536;-61
2022/07/19 14:17:54;;;;;;;;;5.40;5.40;;;;;36.00;21.67;99197.91;6094220;28;98064;-57
2022/07/19 14:20:57;;;;;;;;;6.00;6.00;;;;;36.00;20.14;99195.91;6091517;28;97016;-63